<?xml version="1.0" encoding="utf-8"?>
<gpx xmlns:xsi="http://www.w3.org/2001/XMLSchema-instance" xmlns:xsd="http://www.w3.org/2001/XMLSchema" version="1.1" creator="Shapelink.com" xmlns="http://www.topografix.com/GPX/1/1" xmlns:gpxtpx="http://www.garmin.com/xmlschemas/TrackPointExtension/v1">
  <metadata>
    <name>Gåing 2.40 km, 2012-03-11</name>
    <desc></desc>
    <author><name>Mikael Blom</name></author> 
    <time>2012-03-11T12:41:17Z</time>
  </metadata>
  <trk>
    <name>Gåing 2.40 km, 2012-03-11</name>
    <trkseg>
      <trkpt lat="59.9789437" lon="17.7393677">
        <ele>36.6675</ele>
        <time>2012-03-11T12:41:17Z</time>
      </trkpt>
      <trkpt lat="59.9789775" lon="17.7392725">
        <ele>35.7061</ele>
        <time>2012-03-11T12:41:21Z</time>
      </trkpt>
      <trkpt lat="59.9790683" lon="17.7392221">
        <ele>32.3416</ele>
        <time>2012-03-11T12:41:28Z</time>
      </trkpt>
      <trkpt lat="59.9791744" lon="17.7391498">
        <ele>33.7834</ele>
        <time>2012-03-11T12:41:35Z</time>
      </trkpt>
      <trkpt lat="59.9792546" lon="17.7391151">
        <ele>32.8223</ele>
        <time>2012-03-11T12:41:41Z</time>
      </trkpt>
      <trkpt lat="59.9793374" lon="17.7390527">
        <ele>34.7449</ele>
        <time>2012-03-11T12:41:47Z</time>
      </trkpt>
      <trkpt lat="59.9794637" lon="17.7389788">
        <ele>40.9934</ele>
        <time>2012-03-11T12:41:54Z</time>
      </trkpt>
      <trkpt lat="59.9795903" lon="17.7388907">
        <ele>45.7999</ele>
        <time>2012-03-11T12:42:01Z</time>
      </trkpt>
      <trkpt lat="59.9796835" lon="17.7388088">
        <ele>49.1646</ele>
        <time>2012-03-11T12:42:07Z</time>
      </trkpt>
      <trkpt lat="59.9797638" lon="17.7387762">
        <ele>46.2806</ele>
        <time>2012-03-11T12:42:14Z</time>
      </trkpt>
      <trkpt lat="59.9798531" lon="17.7387659">
        <ele>45.3192</ele>
        <time>2012-03-11T12:42:20Z</time>
      </trkpt>
      <trkpt lat="59.9799253" lon="17.7387413">
        <ele>44.8386</ele>
        <time>2012-03-11T12:42:25Z</time>
      </trkpt>
      <trkpt lat="59.9800078" lon="17.7387344">
        <ele>41.474</ele>
        <time>2012-03-11T12:42:32Z</time>
      </trkpt>
      <trkpt lat="59.9800819" lon="17.738714">
        <ele>42.4354</ele>
        <time>2012-03-11T12:42:38Z</time>
      </trkpt>
      <trkpt lat="59.98011" lon="17.7387178">
        <ele>41.9547</ele>
        <time>2012-03-11T12:42:40Z</time>
      </trkpt>
      <trkpt lat="59.9801993" lon="17.7387413">
        <ele>43.3966</ele>
        <time>2012-03-11T12:42:45Z</time>
      </trkpt>
      <trkpt lat="59.9803459" lon="17.7387263">
        <ele>49.6453</ele>
        <time>2012-03-11T12:42:54Z</time>
      </trkpt>
      <trkpt lat="59.9804099" lon="17.7387227">
        <ele>49.6453</ele>
        <time>2012-03-11T12:42:58Z</time>
      </trkpt>
      <trkpt lat="59.9805076" lon="17.7386978">
        <ele>51.5679</ele>
        <time>2012-03-11T12:43:03Z</time>
      </trkpt>
      <trkpt lat="59.9806196" lon="17.7386593">
        <ele>52.5292</ele>
        <time>2012-03-11T12:43:10Z</time>
      </trkpt>
      <trkpt lat="59.9806622" lon="17.7386418">
        <ele>52.0486</ele>
        <time>2012-03-11T12:43:13Z</time>
      </trkpt>
      <trkpt lat="59.9807506" lon="17.7386265">
        <ele>48.684</ele>
        <time>2012-03-11T12:43:19Z</time>
      </trkpt>
      <trkpt lat="59.9807894" lon="17.7386146">
        <ele>45.3192</ele>
        <time>2012-03-11T12:43:22Z</time>
      </trkpt>
      <trkpt lat="59.9808631" lon="17.7386115">
        <ele>46.7612</ele>
        <time>2012-03-11T12:43:26Z</time>
      </trkpt>
      <trkpt lat="59.9809962" lon="17.7385805">
        <ele>55.8938</ele>
        <time>2012-03-11T12:43:33Z</time>
      </trkpt>
      <trkpt lat="59.9811096" lon="17.7385294">
        <ele>62.6229</ele>
        <time>2012-03-11T12:43:39Z</time>
      </trkpt>
      <trkpt lat="59.9812215" lon="17.7385463">
        <ele>61.181</ele>
        <time>2012-03-11T12:43:46Z</time>
      </trkpt>
      <trkpt lat="59.9812442" lon="17.7385496">
        <ele>58.2971</ele>
        <time>2012-03-11T12:43:48Z</time>
      </trkpt>
      <trkpt lat="59.9813208" lon="17.7385084">
        <ele>59.2584</ele>
        <time>2012-03-11T12:43:53Z</time>
      </trkpt>
      <trkpt lat="59.9814184" lon="17.7385049">
        <ele>55.4131</ele>
        <time>2012-03-11T12:44:00Z</time>
      </trkpt>
      <trkpt lat="59.9815229" lon="17.7384452">
        <ele>55.8938</ele>
        <time>2012-03-11T12:44:07Z</time>
      </trkpt>
      <trkpt lat="59.9816117" lon="17.7384162">
        <ele>56.3745</ele>
        <time>2012-03-11T12:44:12Z</time>
      </trkpt>
      <trkpt lat="59.9817179" lon="17.7383679">
        <ele>54.4518</ele>
        <time>2012-03-11T12:44:19Z</time>
      </trkpt>
      <trkpt lat="59.9817665" lon="17.73834">
        <ele>53.0098</ele>
        <time>2012-03-11T12:44:23Z</time>
      </trkpt>
      <trkpt lat="59.9818767" lon="17.7382826">
        <ele>53.0098</ele>
        <time>2012-03-11T12:44:30Z</time>
      </trkpt>
      <trkpt lat="59.9819675" lon="17.7382415">
        <ele>55.4131</ele>
        <time>2012-03-11T12:44:35Z</time>
      </trkpt>
      <trkpt lat="59.9820239" lon="17.7381945">
        <ele>56.3745</ele>
        <time>2012-03-11T12:44:40Z</time>
      </trkpt>
      <trkpt lat="59.9820655" lon="17.7381599">
        <ele>55.4131</ele>
        <time>2012-03-11T12:44:43Z</time>
      </trkpt>
      <trkpt lat="59.9822067" lon="17.7380873">
        <ele>56.3745</ele>
        <time>2012-03-11T12:44:50Z</time>
      </trkpt>
      <trkpt lat="59.9823461" lon="17.7380354">
        <ele>61.181</ele>
        <time>2012-03-11T12:44:56Z</time>
      </trkpt>
      <trkpt lat="59.9823772" lon="17.7380235">
        <ele>60.2197</ele>
        <time>2012-03-11T12:44:58Z</time>
      </trkpt>
      <trkpt lat="59.9824509" lon="17.7380324">
        <ele>60.7003</ele>
        <time>2012-03-11T12:45:03Z</time>
      </trkpt>
      <trkpt lat="59.9825175" lon="17.7380257">
        <ele>55.4131</ele>
        <time>2012-03-11T12:45:09Z</time>
      </trkpt>
      <trkpt lat="59.9825448" lon="17.7380257">
        <ele>55.4131</ele>
        <time>2012-03-11T12:45:11Z</time>
      </trkpt>
      <trkpt lat="59.9826633" lon="17.7380485">
        <ele>59.7391</ele>
        <time>2012-03-11T12:45:17Z</time>
      </trkpt>
      <trkpt lat="59.9827109" lon="17.7380303">
        <ele>59.7391</ele>
        <time>2012-03-11T12:45:20Z</time>
      </trkpt>
      <trkpt lat="59.9828049" lon="17.7380629">
        <ele>61.6617</ele>
        <time>2012-03-11T12:45:25Z</time>
      </trkpt>
      <trkpt lat="59.9829061" lon="17.73811">
        <ele>65.9877</ele>
        <time>2012-03-11T12:45:30Z</time>
      </trkpt>
      <trkpt lat="59.9829879" lon="17.7380826">
        <ele>67.9103</ele>
        <time>2012-03-11T12:45:35Z</time>
      </trkpt>
      <trkpt lat="59.9830466" lon="17.7380842">
        <ele>65.5071</ele>
        <time>2012-03-11T12:45:40Z</time>
      </trkpt>
      <trkpt lat="59.9831489" lon="17.7380664">
        <ele>64.0651</ele>
        <time>2012-03-11T12:45:47Z</time>
      </trkpt>
      <trkpt lat="59.9831965" lon="17.7380596">
        <ele>59.7391</ele>
        <time>2012-03-11T12:45:51Z</time>
      </trkpt>
      <trkpt lat="59.9833284" lon="17.7380348">
        <ele>61.181</ele>
        <time>2012-03-11T12:45:58Z</time>
      </trkpt>
      <trkpt lat="59.9833755" lon="17.7380334">
        <ele>60.7003</ele>
        <time>2012-03-11T12:46:02Z</time>
      </trkpt>
      <trkpt lat="59.9834351" lon="17.7380154">
        <ele>58.7777</ele>
        <time>2012-03-11T12:46:06Z</time>
      </trkpt>
      <trkpt lat="59.9835054" lon="17.737983">
        <ele>55.8938</ele>
        <time>2012-03-11T12:46:11Z</time>
      </trkpt>
      <trkpt lat="59.9836158" lon="17.7379786">
        <ele>50.126</ele>
        <time>2012-03-11T12:46:18Z</time>
      </trkpt>
      <trkpt lat="59.9837007" lon="17.7379635">
        <ele>51.0872</ele>
        <time>2012-03-11T12:46:23Z</time>
      </trkpt>
      <trkpt lat="59.983793" lon="17.7379226">
        <ele>55.4131</ele>
        <time>2012-03-11T12:46:27Z</time>
      </trkpt>
      <trkpt lat="59.983909" lon="17.7378992">
        <ele>58.7777</ele>
        <time>2012-03-11T12:46:35Z</time>
      </trkpt>
      <trkpt lat="59.9839748" lon="17.7378904">
        <ele>56.3745</ele>
        <time>2012-03-11T12:46:40Z</time>
      </trkpt>
      <trkpt lat="59.9840302" lon="17.7378635">
        <ele>54.9324</ele>
        <time>2012-03-11T12:46:45Z</time>
      </trkpt>
      <trkpt lat="59.9840763" lon="17.7378633">
        <ele>54.4518</ele>
        <time>2012-03-11T12:46:49Z</time>
      </trkpt>
      <trkpt lat="59.9841441" lon="17.7378696">
        <ele>54.4518</ele>
        <time>2012-03-11T12:46:52Z</time>
      </trkpt>
      <trkpt lat="59.9842159" lon="17.7378853">
        <ele>53.4905</ele>
        <time>2012-03-11T12:46:57Z</time>
      </trkpt>
      <trkpt lat="59.9842746" lon="17.7378992">
        <ele>54.4518</ele>
        <time>2012-03-11T12:47:00Z</time>
      </trkpt>
      <trkpt lat="59.9843932" lon="17.7379474">
        <ele>53.4905</ele>
        <time>2012-03-11T12:47:06Z</time>
      </trkpt>
      <trkpt lat="59.9844716" lon="17.7379584">
        <ele>55.4131</ele>
        <time>2012-03-11T12:47:11Z</time>
      </trkpt>
      <trkpt lat="59.9845703" lon="17.7379841">
        <ele>57.8165</ele>
        <time>2012-03-11T12:47:16Z</time>
      </trkpt>
      <trkpt lat="59.9846886" lon="17.7379935">
        <ele>64.0651</ele>
        <time>2012-03-11T12:47:23Z</time>
      </trkpt>
      <trkpt lat="59.9846993" lon="17.7379969">
        <ele>63.1036</ele>
        <time>2012-03-11T12:47:24Z</time>
      </trkpt>
      <trkpt lat="59.9847827" lon="17.7380236">
        <ele>63.1036</ele>
        <time>2012-03-11T12:47:30Z</time>
      </trkpt>
      <trkpt lat="59.984804" lon="17.7380231">
        <ele>63.1036</ele>
        <time>2012-03-11T12:47:32Z</time>
      </trkpt>
      <trkpt lat="59.9849237" lon="17.7380568">
        <ele>62.1423</ele>
        <time>2012-03-11T12:47:39Z</time>
      </trkpt>
      <trkpt lat="59.9850258" lon="17.7380974">
        <ele>61.6617</ele>
        <time>2012-03-11T12:47:45Z</time>
      </trkpt>
      <trkpt lat="59.9851083" lon="17.73811">
        <ele>59.2584</ele>
        <time>2012-03-11T12:47:51Z</time>
      </trkpt>
      <trkpt lat="59.9852235" lon="17.7381276">
        <ele>61.6617</ele>
        <time>2012-03-11T12:47:58Z</time>
      </trkpt>
      <trkpt lat="59.9853097" lon="17.7381365">
        <ele>62.1423</ele>
        <time>2012-03-11T12:48:03Z</time>
      </trkpt>
      <trkpt lat="59.9853247" lon="17.7381411">
        <ele>62.1423</ele>
        <time>2012-03-11T12:48:04Z</time>
      </trkpt>
      <trkpt lat="59.9854279" lon="17.7381348">
        <ele>65.5071</ele>
        <time>2012-03-11T12:48:10Z</time>
      </trkpt>
      <trkpt lat="59.9854433" lon="17.7381437">
        <ele>65.5071</ele>
        <time>2012-03-11T12:48:11Z</time>
      </trkpt>
      <trkpt lat="59.9855235" lon="17.7381831">
        <ele>62.6229</ele>
        <time>2012-03-11T12:48:19Z</time>
      </trkpt>
      <trkpt lat="59.9855319" lon="17.7382028">
        <ele>61.6617</ele>
        <time>2012-03-11T12:48:20Z</time>
      </trkpt>
      <trkpt lat="59.9856405" lon="17.7382474">
        <ele>61.6617</ele>
        <time>2012-03-11T12:48:26Z</time>
      </trkpt>
      <trkpt lat="59.9857345" lon="17.7382847">
        <ele>62.6229</ele>
        <time>2012-03-11T12:48:32Z</time>
      </trkpt>
      <trkpt lat="59.9858384" lon="17.7383404">
        <ele>59.2584</ele>
        <time>2012-03-11T12:48:39Z</time>
      </trkpt>
      <trkpt lat="59.9859063" lon="17.7383692">
        <ele>57.3358</ele>
        <time>2012-03-11T12:48:44Z</time>
      </trkpt>
      <trkpt lat="59.9859784" lon="17.7384188">
        <ele>55.8938</ele>
        <time>2012-03-11T12:48:48Z</time>
      </trkpt>
      <trkpt lat="59.9860599" lon="17.7384683">
        <ele>59.7391</ele>
        <time>2012-03-11T12:48:52Z</time>
      </trkpt>
      <trkpt lat="59.9861679" lon="17.7385258">
        <ele>61.6617</ele>
        <time>2012-03-11T12:48:58Z</time>
      </trkpt>
      <trkpt lat="59.9862493" lon="17.7386022">
        <ele>57.8165</ele>
        <time>2012-03-11T12:49:04Z</time>
      </trkpt>
      <trkpt lat="59.9863532" lon="17.7386923">
        <ele>56.3745</ele>
        <time>2012-03-11T12:49:10Z</time>
      </trkpt>
      <trkpt lat="59.9864831" lon="17.7388259">
        <ele>55.8938</ele>
        <time>2012-03-11T12:49:18Z</time>
      </trkpt>
      <trkpt lat="59.9865444" lon="17.7388669">
        <ele>58.7777</ele>
        <time>2012-03-11T12:49:22Z</time>
      </trkpt>
      <trkpt lat="59.9866552" lon="17.7389667">
        <ele>58.7777</ele>
        <time>2012-03-11T12:49:30Z</time>
      </trkpt>
      <trkpt lat="59.9867036" lon="17.7389927">
        <ele>61.181</ele>
        <time>2012-03-11T12:49:35Z</time>
      </trkpt>
      <trkpt lat="59.9867742" lon="17.7390625">
        <ele>63.1036</ele>
        <time>2012-03-11T12:49:41Z</time>
      </trkpt>
      <trkpt lat="59.9868044" lon="17.739088">
        <ele>65.5071</ele>
        <time>2012-03-11T12:49:44Z</time>
      </trkpt>
      <trkpt lat="59.986864" lon="17.7391165">
        <ele>66.949</ele>
        <time>2012-03-11T12:49:47Z</time>
      </trkpt>
      <trkpt lat="59.9868937" lon="17.7391369">
        <ele>68.3909</ele>
        <time>2012-03-11T12:49:49Z</time>
      </trkpt>
      <trkpt lat="59.9869835" lon="17.7391926">
        <ele>67.9103</ele>
        <time>2012-03-11T12:49:56Z</time>
      </trkpt>
      <trkpt lat="59.9870844" lon="17.7392405">
        <ele>69.3523</ele>
        <time>2012-03-11T12:50:01Z</time>
      </trkpt>
      <trkpt lat="59.9870922" lon="17.7392492">
        <ele>68.8716</ele>
        <time>2012-03-11T12:50:02Z</time>
      </trkpt>
      <trkpt lat="59.9871888" lon="17.7392974">
        <ele>64.0651</ele>
        <time>2012-03-11T12:50:09Z</time>
      </trkpt>
      <trkpt lat="59.9872802" lon="17.739308">
        <ele>61.6617</ele>
        <time>2012-03-11T12:50:15Z</time>
      </trkpt>
      <trkpt lat="59.9873856" lon="17.7393336">
        <ele>61.181</ele>
        <time>2012-03-11T12:50:20Z</time>
      </trkpt>
      <trkpt lat="59.987453" lon="17.739332">
        <ele>62.6229</ele>
        <time>2012-03-11T12:50:24Z</time>
      </trkpt>
      <trkpt lat="59.9875516" lon="17.7393236">
        <ele>61.6617</ele>
        <time>2012-03-11T12:50:30Z</time>
      </trkpt>
      <trkpt lat="59.9876457" lon="17.7393082">
        <ele>65.5071</ele>
        <time>2012-03-11T12:50:35Z</time>
      </trkpt>
      <trkpt lat="59.9877344" lon="17.7392961">
        <ele>66.4683</ele>
        <time>2012-03-11T12:50:40Z</time>
      </trkpt>
      <trkpt lat="59.9878717" lon="17.7392383">
        <ele>73.1976</ele>
        <time>2012-03-11T12:50:47Z</time>
      </trkpt>
      <trkpt lat="59.9879268" lon="17.7392035">
        <ele>75.1202</ele>
        <time>2012-03-11T12:50:52Z</time>
      </trkpt>
      <trkpt lat="59.9880091" lon="17.7391925">
        <ele>79.9266</ele>
        <time>2012-03-11T12:50:57Z</time>
      </trkpt>
      <trkpt lat="59.9880468" lon="17.7392096">
        <ele>69.3523</ele>
        <time>2012-03-11T12:51:02Z</time>
      </trkpt>
      <trkpt lat="59.9881381" lon="17.7391707">
        <ele>67.4297</ele>
        <time>2012-03-11T12:51:08Z</time>
      </trkpt>
      <trkpt lat="59.9882215" lon="17.7391317">
        <ele>63.5844</ele>
        <time>2012-03-11T12:51:14Z</time>
      </trkpt>
      <trkpt lat="59.9883258" lon="17.7391063">
        <ele>63.5844</ele>
        <time>2012-03-11T12:51:23Z</time>
      </trkpt>
      <trkpt lat="59.9884591" lon="17.7390863">
        <ele>63.1036</ele>
        <time>2012-03-11T12:51:29Z</time>
      </trkpt>
      <trkpt lat="59.9885285" lon="17.739043">
        <ele>64.0651</ele>
        <time>2012-03-11T12:51:32Z</time>
      </trkpt>
      <trkpt lat="59.9886442" lon="17.7389393">
        <ele>68.8716</ele>
        <time>2012-03-11T12:51:38Z</time>
      </trkpt>
      <trkpt lat="59.9887467" lon="17.7388936">
        <ele>67.4297</ele>
        <time>2012-03-11T12:51:45Z</time>
      </trkpt>
      <trkpt lat="59.9888025" lon="17.7388796">
        <ele>65.5071</ele>
        <time>2012-03-11T12:51:50Z</time>
      </trkpt>
      <trkpt lat="59.9889198" lon="17.7388078">
        <ele>65.0264</ele>
        <time>2012-03-11T12:51:57Z</time>
      </trkpt>
      <trkpt lat="59.9889503" lon="17.7387762">
        <ele>62.6229</ele>
        <time>2012-03-11T12:52:01Z</time>
      </trkpt>
      <trkpt lat="59.9889956" lon="17.7386647">
        <ele>56.3745</ele>
        <time>2012-03-11T12:52:07Z</time>
      </trkpt>
      <trkpt lat="59.9890498" lon="17.7386071">
        <ele>58.7777</ele>
        <time>2012-03-11T12:52:11Z</time>
      </trkpt>
      <trkpt lat="59.9891493" lon="17.738559">
        <ele>65.5071</ele>
        <time>2012-03-11T12:52:16Z</time>
      </trkpt>
      <trkpt lat="59.9892753" lon="17.7385214">
        <ele>67.9103</ele>
        <time>2012-03-11T12:52:22Z</time>
      </trkpt>
      <trkpt lat="59.9893398" lon="17.7384377">
        <ele>73.6782</ele>
        <time>2012-03-11T12:52:26Z</time>
      </trkpt>
      <trkpt lat="59.989429" lon="17.7384204">
        <ele>68.3909</ele>
        <time>2012-03-11T12:52:33Z</time>
      </trkpt>
      <trkpt lat="59.989465" lon="17.738421">
        <ele>60.7003</ele>
        <time>2012-03-11T12:52:37Z</time>
      </trkpt>
      <trkpt lat="59.9895419" lon="17.7384348">
        <ele>54.4518</ele>
        <time>2012-03-11T12:52:42Z</time>
      </trkpt>
      <trkpt lat="59.9896271" lon="17.738438">
        <ele>51.0872</ele>
        <time>2012-03-11T12:52:47Z</time>
      </trkpt>
      <trkpt lat="59.9897319" lon="17.7384653">
        <ele>50.126</ele>
        <time>2012-03-11T12:52:53Z</time>
      </trkpt>
      <trkpt lat="59.9897556" lon="17.7384352">
        <ele>52.5292</ele>
        <time>2012-03-11T12:52:57Z</time>
      </trkpt>
      <trkpt lat="59.9898757" lon="17.7383678">
        <ele>50.126</ele>
        <time>2012-03-11T12:53:04Z</time>
      </trkpt>
      <trkpt lat="59.989954" lon="17.7383142">
        <ele>51.5679</ele>
        <time>2012-03-11T12:53:10Z</time>
      </trkpt>
      <trkpt lat="59.9900432" lon="17.7382841">
        <ele>52.5292</ele>
        <time>2012-03-11T12:53:14Z</time>
      </trkpt>
      <trkpt lat="59.9901743" lon="17.738201">
        <ele>58.2971</ele>
        <time>2012-03-11T12:53:20Z</time>
      </trkpt>
      <trkpt lat="59.9902525" lon="17.7381371">
        <ele>63.1036</ele>
        <time>2012-03-11T12:53:26Z</time>
      </trkpt>
      <trkpt lat="59.9902643" lon="17.7381152">
        <ele>64.5457</ele>
        <time>2012-03-11T12:53:27Z</time>
      </trkpt>
      <trkpt lat="59.9903389" lon="17.7380729">
        <ele>66.949</ele>
        <time>2012-03-11T12:53:31Z</time>
      </trkpt>
      <trkpt lat="59.9904525" lon="17.7380607">
        <ele>69.8329</ele>
        <time>2012-03-11T12:53:36Z</time>
      </trkpt>
      <trkpt lat="59.9904702" lon="17.7380563">
        <ele>67.9103</ele>
        <time>2012-03-11T12:53:38Z</time>
      </trkpt>
      <trkpt lat="59.9905522" lon="17.7380541">
        <ele>65.5071</ele>
        <time>2012-03-11T12:53:44Z</time>
      </trkpt>
      <trkpt lat="59.9906336" lon="17.7379976">
        <ele>63.1036</ele>
        <time>2012-03-11T12:53:50Z</time>
      </trkpt>
      <trkpt lat="59.9906908" lon="17.7379879">
        <ele>62.6229</ele>
        <time>2012-03-11T12:53:53Z</time>
      </trkpt>
      <trkpt lat="59.9907758" lon="17.7379562">
        <ele>61.6617</ele>
        <time>2012-03-11T12:53:59Z</time>
      </trkpt>
      <trkpt lat="59.9908507" lon="17.7378526">
        <ele>65.5071</ele>
        <time>2012-03-11T12:54:05Z</time>
      </trkpt>
      <trkpt lat="59.9908877" lon="17.7377991">
        <ele>67.9103</ele>
        <time>2012-03-11T12:54:08Z</time>
      </trkpt>
      <trkpt lat="59.9909975" lon="17.7377301">
        <ele>68.8716</ele>
        <time>2012-03-11T12:54:14Z</time>
      </trkpt>
      <trkpt lat="59.9911089" lon="17.7376967">
        <ele>66.4683</ele>
        <time>2012-03-11T12:54:21Z</time>
      </trkpt>
      <trkpt lat="59.9911539" lon="17.7376602">
        <ele>63.5844</ele>
        <time>2012-03-11T12:54:27Z</time>
      </trkpt>
      <trkpt lat="59.991234" lon="17.7376231">
        <ele>66.949</ele>
        <time>2012-03-11T12:54:32Z</time>
      </trkpt>
      <trkpt lat="59.9913327" lon="17.7376006">
        <ele>65.0264</ele>
        <time>2012-03-11T12:54:37Z</time>
      </trkpt>
      <trkpt lat="59.9914355" lon="17.7376131">
        <ele>63.1036</ele>
        <time>2012-03-11T12:54:43Z</time>
      </trkpt>
      <trkpt lat="59.9915477" lon="17.7375724">
        <ele>72.7169</ele>
        <time>2012-03-11T12:54:49Z</time>
      </trkpt>
      <trkpt lat="59.9915957" lon="17.7375512">
        <ele>74.6395</ele>
        <time>2012-03-11T12:54:53Z</time>
      </trkpt>
      <trkpt lat="59.9917207" lon="17.7375466">
        <ele>74.6395</ele>
        <time>2012-03-11T12:54:59Z</time>
      </trkpt>
      <trkpt lat="59.9917685" lon="17.7375847">
        <ele>65.0264</ele>
        <time>2012-03-11T12:55:04Z</time>
      </trkpt>
      <trkpt lat="59.9918833" lon="17.7375786">
        <ele>63.5844</ele>
        <time>2012-03-11T12:55:10Z</time>
      </trkpt>
      <trkpt lat="59.9919802" lon="17.7375378">
        <ele>65.0264</ele>
        <time>2012-03-11T12:55:16Z</time>
      </trkpt>
      <trkpt lat="59.9920234" lon="17.7375364">
        <ele>56.3745</ele>
        <time>2012-03-11T12:55:21Z</time>
      </trkpt>
      <trkpt lat="59.9921548" lon="17.7375478">
        <ele>53.4905</ele>
        <time>2012-03-11T12:55:28Z</time>
      </trkpt>
      <trkpt lat="59.9922198" lon="17.7375243">
        <ele>53.4905</ele>
        <time>2012-03-11T12:55:32Z</time>
      </trkpt>
      <trkpt lat="59.992309" lon="17.7374847">
        <ele>52.5292</ele>
        <time>2012-03-11T12:55:38Z</time>
      </trkpt>
      <trkpt lat="59.9923811" lon="17.7374066">
        <ele>53.0098</ele>
        <time>2012-03-11T12:55:44Z</time>
      </trkpt>
      <trkpt lat="59.9924238" lon="17.7373755">
        <ele>53.9712</ele>
        <time>2012-03-11T12:55:46Z</time>
      </trkpt>
      <trkpt lat="59.9924458" lon="17.737309">
        <ele>55.8938</ele>
        <time>2012-03-11T12:55:49Z</time>
      </trkpt>
      <trkpt lat="59.9925837" lon="17.7371829">
        <ele>64.0651</ele>
        <time>2012-03-11T12:55:56Z</time>
      </trkpt>
      <trkpt lat="59.9926691" lon="17.7370952">
        <ele>62.1423</ele>
        <time>2012-03-11T12:56:02Z</time>
      </trkpt>
      <trkpt lat="59.9927213" lon="17.7370003">
        <ele>54.4518</ele>
        <time>2012-03-11T12:56:08Z</time>
      </trkpt>
      <trkpt lat="59.9927627" lon="17.7368751">
        <ele>51.0872</ele>
        <time>2012-03-11T12:56:13Z</time>
      </trkpt>
      <trkpt lat="59.9927803" lon="17.7368042">
        <ele>49.6453</ele>
        <time>2012-03-11T12:56:16Z</time>
      </trkpt>
      <trkpt lat="59.9927736" lon="17.7367775">
        <ele>50.126</ele>
        <time>2012-03-11T12:56:17Z</time>
      </trkpt>
      <trkpt lat="59.9928799" lon="17.7365693">
        <ele>49.1646</ele>
        <time>2012-03-11T12:56:25Z</time>
      </trkpt>
      <trkpt lat="59.9929496" lon="17.7364602">
        <ele>47.7225</ele>
        <time>2012-03-11T12:56:31Z</time>
      </trkpt>
      <trkpt lat="59.9930498" lon="17.7363153">
        <ele>44.8386</ele>
        <time>2012-03-11T12:56:38Z</time>
      </trkpt>
      <trkpt lat="59.9931281" lon="17.7361803">
        <ele>42.916</ele>
        <time>2012-03-11T12:56:44Z</time>
      </trkpt>
      <trkpt lat="59.9931435" lon="17.7361623">
        <ele>42.4354</ele>
        <time>2012-03-11T12:56:45Z</time>
      </trkpt>
      <trkpt lat="59.9931606" lon="17.7359609">
        <ele>44.8386</ele>
        <time>2012-03-11T12:56:52Z</time>
      </trkpt>
      <trkpt lat="59.9932239" lon="17.7358603">
        <ele>45.3192</ele>
        <time>2012-03-11T12:56:57Z</time>
      </trkpt>
      <trkpt lat="59.9933108" lon="17.7357161">
        <ele>44.358</ele>
        <time>2012-03-11T12:57:04Z</time>
      </trkpt>
      <trkpt lat="59.9933249" lon="17.7356972">
        <ele>44.358</ele>
        <time>2012-03-11T12:57:05Z</time>
      </trkpt>
      <trkpt lat="59.9934099" lon="17.7356196">
        <ele>43.8773</ele>
        <time>2012-03-11T12:57:11Z</time>
      </trkpt>
      <trkpt lat="59.99352" lon="17.735568">
        <ele>47.2418</ele>
        <time>2012-03-11T12:57:15Z</time>
      </trkpt>
      <trkpt lat="59.9935551" lon="17.7355729">
        <ele>48.684</ele>
        <time>2012-03-11T12:57:16Z</time>
      </trkpt>
      <trkpt lat="59.9936328" lon="17.7354676">
        <ele>55.4131</ele>
        <time>2012-03-11T12:57:24Z</time>
      </trkpt>
      <trkpt lat="59.9937014" lon="17.7354454">
        <ele>53.9712</ele>
        <time>2012-03-11T12:57:29Z</time>
      </trkpt>
      <trkpt lat="59.9937324" lon="17.7354522">
        <ele>55.8938</ele>
        <time>2012-03-11T12:57:33Z</time>
      </trkpt>
      <trkpt lat="59.9938751" lon="17.7355526">
        <ele>52.0486</ele>
        <time>2012-03-11T12:57:38Z</time>
      </trkpt>
      <trkpt lat="59.9939354" lon="17.7355555">
        <ele>52.5292</ele>
        <time>2012-03-11T12:57:42Z</time>
      </trkpt>
      <trkpt lat="59.9939962" lon="17.735564">
        <ele>56.3745</ele>
        <time>2012-03-11T12:57:47Z</time>
      </trkpt>
      <trkpt lat="59.9940967" lon="17.7355716">
        <ele>60.2197</ele>
        <time>2012-03-11T12:57:52Z</time>
      </trkpt>
      <trkpt lat="59.9942009" lon="17.7356169">
        <ele>60.7003</ele>
        <time>2012-03-11T12:57:57Z</time>
      </trkpt>
      <trkpt lat="59.9943097" lon="17.7356154">
        <ele>63.1036</ele>
        <time>2012-03-11T12:58:03Z</time>
      </trkpt>
      <trkpt lat="59.9943925" lon="17.7356612">
        <ele>62.1423</ele>
        <time>2012-03-11T12:58:08Z</time>
      </trkpt>
      <trkpt lat="59.994477" lon="17.7357037">
        <ele>62.1423</ele>
        <time>2012-03-11T12:58:13Z</time>
      </trkpt>
      <trkpt lat="59.9944967" lon="17.7356957">
        <ele>60.2197</ele>
        <time>2012-03-11T12:58:18Z</time>
      </trkpt>
      <trkpt lat="59.9946084" lon="17.7357541">
        <ele>63.5844</ele>
        <time>2012-03-11T12:58:24Z</time>
      </trkpt>
      <trkpt lat="59.9946974" lon="17.735753">
        <ele>70.3135</ele>
        <time>2012-03-11T12:58:28Z</time>
      </trkpt>
      <trkpt lat="59.9947069" lon="17.7357769">
        <ele>69.3523</ele>
        <time>2012-03-11T12:58:30Z</time>
      </trkpt>
      <trkpt lat="59.9948545" lon="17.7358584">
        <ele>69.8329</ele>
        <time>2012-03-11T12:58:37Z</time>
      </trkpt>
      <trkpt lat="59.9949286" lon="17.7359323">
        <ele>62.1423</ele>
        <time>2012-03-11T12:58:42Z</time>
      </trkpt>
      <trkpt lat="59.9949585" lon="17.7359701">
        <ele>57.3358</ele>
        <time>2012-03-11T12:58:45Z</time>
      </trkpt>
      <trkpt lat="59.9950488" lon="17.7360179">
        <ele>54.4518</ele>
        <time>2012-03-11T12:58:50Z</time>
      </trkpt>
      <trkpt lat="59.9951109" lon="17.7359944">
        <ele>53.0098</ele>
        <time>2012-03-11T12:58:56Z</time>
      </trkpt>
      <trkpt lat="59.9951682" lon="17.7360018">
        <ele>52.5292</ele>
        <time>2012-03-11T12:59:01Z</time>
      </trkpt>
      <trkpt lat="59.9952729" lon="17.7360094">
        <ele>54.4518</ele>
        <time>2012-03-11T12:59:06Z</time>
      </trkpt>
      <trkpt lat="59.9953441" lon="17.7360173">
        <ele>55.8938</ele>
        <time>2012-03-11T12:59:11Z</time>
      </trkpt>
      <trkpt lat="59.9953726" lon="17.736022">
        <ele>54.9324</ele>
        <time>2012-03-11T12:59:13Z</time>
      </trkpt>
      <trkpt lat="59.9954844" lon="17.7360319">
        <ele>52.5292</ele>
        <time>2012-03-11T12:59:20Z</time>
      </trkpt>
      <trkpt lat="59.9955885" lon="17.7360219">
        <ele>50.6066</ele>
        <time>2012-03-11T12:59:26Z</time>
      </trkpt>
      <trkpt lat="59.995603" lon="17.7360168">
        <ele>50.126</ele>
        <time>2012-03-11T12:59:27Z</time>
      </trkpt>
      <trkpt lat="59.9956855" lon="17.7360696">
        <ele>50.6066</ele>
        <time>2012-03-11T12:59:32Z</time>
      </trkpt>
      <trkpt lat="59.9957215" lon="17.7360633">
        <ele>51.0872</ele>
        <time>2012-03-11T12:59:34Z</time>
      </trkpt>
      <trkpt lat="59.9957679" lon="17.7360334">
        <ele>53.4905</ele>
        <time>2012-03-11T12:59:36Z</time>
      </trkpt>
      <trkpt lat="59.9958754" lon="17.736022">
        <ele>58.7777</ele>
        <time>2012-03-11T12:59:43Z</time>
      </trkpt>
      <trkpt lat="59.9959687" lon="17.7360199">
        <ele>62.1423</ele>
        <time>2012-03-11T12:59:49Z</time>
      </trkpt>
      <trkpt lat="59.9960506" lon="17.7360234">
        <ele>63.5844</ele>
        <time>2012-03-11T12:59:55Z</time>
      </trkpt>
      <trkpt lat="59.9961665" lon="17.7360363">
        <ele>64.0651</ele>
        <time>2012-03-11T12:59:59Z</time>
      </trkpt>
      <trkpt lat="59.9962137" lon="17.7360717">
        <ele>57.3358</ele>
        <time>2012-03-11T13:00:05Z</time>
      </trkpt>
      <trkpt lat="59.9962628" lon="17.7361084">
        <ele>56.3745</ele>
        <time>2012-03-11T13:00:08Z</time>
      </trkpt>
      <trkpt lat="59.9963568" lon="17.7361326">
        <ele>55.8938</ele>
        <time>2012-03-11T13:00:13Z</time>
      </trkpt>
      <trkpt lat="59.9964728" lon="17.7362072">
        <ele>53.9712</ele>
        <time>2012-03-11T13:00:20Z</time>
      </trkpt>
      <trkpt lat="59.9965587" lon="17.7362844">
        <ele>54.9324</ele>
        <time>2012-03-11T13:00:27Z</time>
      </trkpt>
      <trkpt lat="59.9966214" lon="17.7363305">
        <ele>51.5679</ele>
        <time>2012-03-11T13:00:32Z</time>
      </trkpt>
      <trkpt lat="59.9966825" lon="17.7363602">
        <ele>49.6453</ele>
        <time>2012-03-11T13:00:36Z</time>
      </trkpt>
      <trkpt lat="59.9967599" lon="17.7364053">
        <ele>50.6066</ele>
        <time>2012-03-11T13:00:41Z</time>
      </trkpt>
      <trkpt lat="59.9968665" lon="17.7364515">
        <ele>49.1646</ele>
        <time>2012-03-11T13:00:48Z</time>
      </trkpt>
      <trkpt lat="59.9969389" lon="17.7364681">
        <ele>50.126</ele>
        <time>2012-03-11T13:00:52Z</time>
      </trkpt>
      <trkpt lat="59.9969764" lon="17.7364839">
        <ele>48.2034</ele>
        <time>2012-03-11T13:00:55Z</time>
      </trkpt>
      <trkpt lat="59.9971141" lon="17.7364989">
        <ele>53.4905</ele>
        <time>2012-03-11T13:01:02Z</time>
      </trkpt>
      <trkpt lat="59.9971364" lon="17.7364965">
        <ele>53.4905</ele>
        <time>2012-03-11T13:01:03Z</time>
      </trkpt>
      <trkpt lat="59.9972197" lon="17.7364935">
        <ele>50.126</ele>
        <time>2012-03-11T13:01:08Z</time>
      </trkpt>
      <trkpt lat="59.9972611" lon="17.7365115">
        <ele>49.6453</ele>
        <time>2012-03-11T13:01:12Z</time>
      </trkpt>
      <trkpt lat="59.9974211" lon="17.7365338">
        <ele>53.9712</ele>
        <time>2012-03-11T13:01:18Z</time>
      </trkpt>
      <trkpt lat="59.9975285" lon="17.736532">
        <ele>56.8551</ele>
        <time>2012-03-11T13:01:24Z</time>
      </trkpt>
      <trkpt lat="59.9975682" lon="17.7365087">
        <ele>61.6617</ele>
        <time>2012-03-11T13:01:28Z</time>
      </trkpt>
      <trkpt lat="59.9976181" lon="17.7364994">
        <ele>64.5457</ele>
        <time>2012-03-11T13:01:32Z</time>
      </trkpt>
      <trkpt lat="59.9976643" lon="17.7365089">
        <ele>63.1036</ele>
        <time>2012-03-11T13:01:36Z</time>
      </trkpt>
      <trkpt lat="59.9977476" lon="17.7365569">
        <ele>61.6617</ele>
        <time>2012-03-11T13:01:41Z</time>
      </trkpt>
      <trkpt lat="59.9978149" lon="17.7365845">
        <ele>59.2584</ele>
        <time>2012-03-11T13:01:46Z</time>
      </trkpt>
      <trkpt lat="59.9979201" lon="17.7365829">
        <ele>59.2584</ele>
        <time>2012-03-11T13:01:52Z</time>
      </trkpt>
      <trkpt lat="59.9979811" lon="17.7365523">
        <ele>56.8551</ele>
        <time>2012-03-11T13:01:57Z</time>
      </trkpt>
      <trkpt lat="59.9980271" lon="17.7365483">
        <ele>56.3745</ele>
        <time>2012-03-11T13:02:00Z</time>
      </trkpt>
      <trkpt lat="59.9981035" lon="17.7365541">
        <ele>55.4131</ele>
        <time>2012-03-11T13:02:04Z</time>
      </trkpt>
      <trkpt lat="59.9981454" lon="17.7365529">
        <ele>56.8551</ele>
        <time>2012-03-11T13:02:06Z</time>
      </trkpt>
      <trkpt lat="59.9982687" lon="17.7366057">
        <ele>55.4131</ele>
        <time>2012-03-11T13:02:13Z</time>
      </trkpt>
      <trkpt lat="59.9983651" lon="17.7366178">
        <ele>55.4131</ele>
        <time>2012-03-11T13:02:19Z</time>
      </trkpt>
      <trkpt lat="59.9984359" lon="17.7366211">
        <ele>55.8938</ele>
        <time>2012-03-11T13:02:24Z</time>
      </trkpt>
      <trkpt lat="59.9984714" lon="17.7366186">
        <ele>54.9324</ele>
        <time>2012-03-11T13:02:28Z</time>
      </trkpt>
      <trkpt lat="59.9985251" lon="17.7366289">
        <ele>51.5679</ele>
        <time>2012-03-11T13:02:32Z</time>
      </trkpt>
      <trkpt lat="59.998619" lon="17.73664">
        <ele>49.6453</ele>
        <time>2012-03-11T13:02:38Z</time>
      </trkpt>
      <trkpt lat="59.9987318" lon="17.736715">
        <ele>44.8386</ele>
        <time>2012-03-11T13:02:44Z</time>
      </trkpt>
      <trkpt lat="59.9988265" lon="17.7367035">
        <ele>44.8386</ele>
        <time>2012-03-11T13:02:50Z</time>
      </trkpt>
      <trkpt lat="59.9989074" lon="17.7366786">
        <ele>46.7612</ele>
        <time>2012-03-11T13:02:56Z</time>
      </trkpt>
      <trkpt lat="59.9990198" lon="17.7367145">
        <ele>43.8773</ele>
        <time>2012-03-11T13:03:02Z</time>
      </trkpt>
      <trkpt lat="59.9991161" lon="17.7367782">
        <ele>43.3966</ele>
        <time>2012-03-11T13:03:07Z</time>
      </trkpt>
      <trkpt lat="59.9991792" lon="17.7367822">
        <ele>46.7612</ele>
        <time>2012-03-11T13:03:11Z</time>
      </trkpt>
      <trkpt lat="59.9992167" lon="17.7367861">
        <ele>48.2034</ele>
        <time>2012-03-11T13:03:13Z</time>
      </trkpt>
      <trkpt lat="59.9993156" lon="17.7367435">
        <ele>52.5292</ele>
        <time>2012-03-11T13:03:19Z</time>
      </trkpt>
      <trkpt lat="59.9993747" lon="17.736739">
        <ele>55.4131</ele>
        <time>2012-03-11T13:03:22Z</time>
      </trkpt>
      <trkpt lat="59.9994658" lon="17.7367487">
        <ele>55.4131</ele>
        <time>2012-03-11T13:03:28Z</time>
      </trkpt>
      <trkpt lat="59.9995093" lon="17.7367782">
        <ele>53.0098</ele>
        <time>2012-03-11T13:03:32Z</time>
      </trkpt>
      <trkpt lat="59.9995689" lon="17.7368252">
        <ele>50.126</ele>
        <time>2012-03-11T13:03:37Z</time>
      </trkpt>
      <trkpt lat="59.9996509" lon="17.7368592">
        <ele>49.6453</ele>
        <time>2012-03-11T13:03:42Z</time>
      </trkpt>
      <trkpt lat="59.9997394" lon="17.7368636">
        <ele>47.7225</ele>
        <time>2012-03-11T13:03:47Z</time>
      </trkpt>
    </trkseg>
  </trk>
</gpx>